sensor_id;sensor_type;location;lat;lon;timestamp;pressure;altitude;pressure_sealevel;temperature;humidity
71476;BME280;59286;59.274;17.974;2022-12-07T00:03:39;100587.09;;;-4.75;87.39
71476;BME280;59286;59.274;17.974;2022-12-07T00:06:06;100612.28;;;-4.72;87.16
71476;BME280;59286;59.274;17.974;2022-12-07T00:08:33;100594.94;;;-4.89;87.42
71476;BME280;59286;59.274;17.974;2022-12-07T00:11:03;100595.16;;;-4.91;87.33
71476;BME280;59286;59.274;17.974;2022-12-07T00:13:29;100596.94;;;-4.85;89.83
71476;BME280;59286;59.274;17.974;2022-12-07T00:15:55;100591.78;;;-4.92;87.85
71476;BME280;59286;59.274;17.974;2022-12-07T00:18:20;100568.56;;;-5.03;87.16
71476;BME280;59286;59.274;17.974;2022-12-07T00:20:45;100598.09;;;-4.81;87.26
71476;BME280;59286;59.274;17.974;2022-12-07T00:23:11;100575.66;;;-4.92;86.91
71476;BME280;59286;59.274;17.974;2022-12-07T00:25:36;100559.56;;;-5.06;87.28
71476;BME280;59286;59.274;17.974;2022-12-07T00:28:01;100591.22;;;-4.80;86.55
71476;BME280;59286;59.274;17.974;2022-12-07T00:30:27;100583.16;;;-4.84;87.22
71476;BME280;59286;59.274;17.974;2022-12-07T00:32:52;100571.75;;;-4.88;86.57
71476;BME280;59286;59.274;17.974;2022-12-07T00:35:17;100589.66;;;-4.75;87.07
71476;BME280;59286;59.274;17.974;2022-12-07T00:37:43;100558.59;;;-4.85;86.82
71476;BME280;59286;59.274;17.974;2022-12-07T00:40:08;100549.91;;;-4.97;86.49
71476;BME280;59286;59.274;17.974;2022-12-07T00:42:34;100563.13;;;-4.87;86.67
71476;BME280;59286;59.274;17.974;2022-12-07T00:44:59;100565.09;;;-4.89;87.52
71476;BME280;59286;59.274;17.974;2022-12-07T00:47:25;100557.19;;;-4.94;87.25
71476;BME280;59286;59.274;17.974;2022-12-07T00:49:50;100554.84;;;-4.89;86.20
71476;BME280;59286;59.274;17.974;2022-12-07T00:52:15;100550.13;;;-4.92;86.89
71476;BME280;59286;59.274;17.974;2022-12-07T00:54:41;100575.13;;;-4.74;87.91
71476;BME280;59286;59.274;17.974;2022-12-07T00:57:06;100539.91;;;-4.92;88.34
71476;BME280;59286;59.274;17.974;2022-12-07T00:59:31;100563.13;;;-4.80;87.09
71476;BME280;59286;59.274;17.974;2022-12-07T01:01:57;100548.16;;;-4.90;86.78
71476;BME280;59286;59.274;17.974;2022-12-07T01:04:22;100562.31;;;-4.81;87.30
71476;BME280;59286;59.274;17.974;2022-12-07T01:06:48;100577.88;;;-4.69;86.72
71476;BME280;59286;59.274;17.974;2022-12-07T01:09:13;100530.66;;;-4.93;86.76
71476;BME280;59286;59.274;17.974;2022-12-07T01:11:38;100536.56;;;-4.86;86.54
71476;BME280;59286;59.274;17.974;2022-12-07T01:14:04;100550.34;;;-4.74;85.71
71476;BME280;59286;59.274;17.974;2022-12-07T01:16:31;100559.38;;;-4.71;86.26
71476;BME280;59286;59.274;17.974;2022-12-07T01:18:57;100561.38;;;-4.67;85.71
71476;BME280;59286;59.274;17.974;2022-12-07T01:21:29;100555.25;;;-4.79;86.53
71476;BME280;59286;59.274;17.974;2022-12-07T01:23:57;100562.34;;;-4.68;85.96
71476;BME280;59286;59.274;17.974;2022-12-07T01:26:24;100572.19;;;-4.65;85.80
71476;BME280;59286;59.274;17.974;2022-12-07T01:28:50;100570.59;;;-4.66;86.05
71476;BME280;59286;59.274;17.974;2022-12-07T01:31:20;100533.03;;;-4.92;86.36
71476;BME280;59286;59.274;17.974;2022-12-07T01:33:51;100567.44;;;-4.74;86.76
71476;BME280;59286;59.274;17.974;2022-12-07T01:36:24;100544.63;;;-4.89;86.48
71476;BME280;59286;59.274;17.974;2022-12-07T01:38:53;100569.41;;;-4.76;86.93
71476;BME280;59286;59.274;17.974;2022-12-07T01:41:20;100553.69;;;-4.80;86.39
71476;BME280;59286;59.274;17.974;2022-12-07T01:44:12;100558.03;;;-4.74;86.11
71476;BME280;59286;59.274;17.974;2022-12-07T01:46:38;100544.63;;;-4.82;85.75
71476;BME280;59286;59.274;17.974;2022-12-07T01:49:06;100539.31;;;-4.94;86.87
71476;BME280;59286;59.274;17.974;2022-12-07T01:51:34;100530.44;;;-5.05;86.83
71476;BME280;59286;59.274;17.974;2022-12-07T01:54:00;100536.34;;;-4.98;86.53
71476;BME280;59286;59.274;17.974;2022-12-07T01:56:27;100567.63;;;-4.82;86.72
71476;BME280;59286;59.274;17.974;2022-12-07T01:58:54;100539.09;;;-4.99;86.79
71476;BME280;59286;59.274;17.974;2022-12-07T02:01:22;100523.38;;;-5.09;86.65
71476;BME280;59286;59.274;17.974;2022-12-07T02:03:50;100500.53;;;-5.24;86.68
71476;BME280;59286;59.274;17.974;2022-12-07T02:06:19;100558.59;;;-4.98;87.04
71476;BME280;59286;59.274;17.974;2022-12-07T02:08:46;100529.25;;;-5.15;86.73
71476;BME280;59286;59.274;17.974;2022-12-07T02:11:12;100516.88;;;-5.25;86.38
71476;BME280;59286;59.274;17.974;2022-12-07T02:13:39;100548.94;;;-5.03;86.48
71476;BME280;59286;59.274;17.974;2022-12-07T02:30:12;100548.13;;;-5.03;86.35
71476;BME280;59286;59.274;17.974;2022-12-07T02:32:57;100543.63;;;-5.08;86.15
71476;BME280;59286;59.274;17.974;2022-12-07T02:38:20;100534.75;;;-5.18;86.75
71476;BME280;59286;59.274;17.974;2022-12-07T02:40:57;100513.91;;;-5.22;86.43
71476;BME280;59286;59.274;17.974;2022-12-07T02:43:28;100531.03;;;-5.22;86.26
71476;BME280;59286;59.274;17.974;2022-12-07T02:45:59;100514.69;;;-5.34;85.98
71476;BME280;59286;59.274;17.974;2022-12-07T02:48:27;100536.69;;;-5.20;86.21
71476;BME280;59286;59.274;17.974;2022-12-07T02:50:53;100538.09;;;-5.18;86.41
71476;BME280;59286;59.274;17.974;2022-12-07T02:53:48;100522.53;;;-5.29;86.98
71476;BME280;59286;59.274;17.974;2022-12-07T02:57:07;100532.97;;;-5.24;86.29
71476;BME280;59286;59.274;17.974;2022-12-07T03:18:24;100484.00;;;-5.54;85.79
71476;BME280;59286;59.274;17.974;2022-12-07T03:20:55;100496.16;;;-5.49;85.87
71476;BME280;59286;59.274;17.974;2022-12-07T03:23:23;100507.53;;;-5.52;86.68
71476;BME280;59286;59.274;17.974;2022-12-07T03:25:53;100468.22;;;-5.70;87.69
71476;BME280;59286;59.274;17.974;2022-12-07T03:28:23;100502.28;;;-5.44;87.05
71476;BME280;59286;59.274;17.974;2022-12-07T03:31:03;100492.25;;;-5.45;86.27
71476;BME280;59286;59.274;17.974;2022-12-07T03:33:35;100513.69;;;-5.33;86.05
71476;BME280;59286;59.274;17.974;2022-12-07T03:36:12;100512.72;;;-5.32;86.06
71476;BME280;59286;59.274;17.974;2022-12-07T03:38:50;100478.09;;;-5.54;85.48
71476;BME280;59286;59.274;17.974;2022-12-07T03:41:26;100479.09;;;-5.49;86.10
71476;BME280;59286;59.274;17.974;2022-12-07T03:43:54;100495.00;;;-5.47;87.72
71476;BME280;59286;59.274;17.974;2022-12-07T03:49:31;100510.97;;;-5.25;89.26
71476;BME280;59286;59.274;17.974;2022-12-07T03:52:25;100509.81;;;-5.10;89.09
71476;BME280;59286;59.274;17.974;2022-12-07T03:55:02;100487.19;;;-5.19;89.49
71476;BME280;59286;59.274;17.974;2022-12-07T03:57:31;100474.25;;;-5.11;89.28
71476;BME280;59286;59.274;17.974;2022-12-07T03:59:58;100504.53;;;-4.95;89.59
71476;BME280;59286;59.274;17.974;2022-12-07T04:02:27;100450.66;;;-5.20;88.83
71476;BME280;59286;59.274;17.974;2022-12-07T04:04:52;100484.88;;;-4.88;89.07
71476;BME280;59286;59.274;17.974;2022-12-07T04:07:18;100486.06;;;-4.77;88.54
71476;BME280;59286;59.274;17.974;2022-12-07T04:09:43;100469.16;;;-4.85;87.50
71476;BME280;59286;59.274;17.974;2022-12-07T04:12:08;100464.22;;;-4.80;87.18
71476;BME280;59286;59.274;17.974;2022-12-07T04:14:34;100440.06;;;-4.90;86.93
71476;BME280;59286;59.274;17.974;2022-12-07T04:16:59;100449.69;;;-4.86;86.26
71476;BME280;59286;59.274;17.974;2022-12-07T04:19:30;100465.59;;;-4.84;85.92
71476;BME280;59286;59.274;17.974;2022-12-07T04:21:58;100466.00;;;-4.94;85.72
71476;BME280;59286;59.274;17.974;2022-12-07T04:24:24;100441.63;;;-5.09;86.23
71476;BME280;59286;59.274;17.974;2022-12-07T04:26:50;100462.09;;;-4.96;86.25
71476;BME280;59286;59.274;17.974;2022-12-07T04:29:16;100467.75;;;-4.81;87.58
71476;BME280;59286;59.274;17.974;2022-12-07T04:31:43;100449.88;;;-4.81;87.50
71476;BME280;59286;59.274;17.974;2022-12-07T04:34:08;100457.75;;;-4.76;87.40
71476;BME280;59286;59.274;17.974;2022-12-07T04:36:34;100431.41;;;-4.89;88.70
71476;BME280;59286;59.274;17.974;2022-12-07T04:39:00;100442.78;;;-4.79;88.57
71476;BME280;59286;59.274;17.974;2022-12-07T04:41:26;100442.78;;;-4.79;89.35
71476;BME280;59286;59.274;17.974;2022-12-07T04:43:54;100450.66;;;-4.74;89.36
71476;BME280;59286;59.274;17.974;2022-12-07T04:46:20;100422.16;;;-4.84;89.24
71476;BME280;59286;59.274;17.974;2022-12-07T04:48:46;100386.97;;;-5.02;89.42
71476;BME280;59286;59.274;17.974;2022-12-07T04:51:11;100421.56;;;-4.73;88.73
71476;BME280;59286;59.274;17.974;2022-12-07T04:53:36;100393.63;;;-4.81;88.36
71476;BME280;59286;59.274;17.974;2022-12-07T04:56:01;100429.00;;;-4.52;88.72
71476;BME280;59286;59.274;17.974;2022-12-07T04:58:27;100399.94;;;-4.70;88.68
71476;BME280;59286;59.274;17.974;2022-12-07T05:00:55;100394.81;;;-4.70;88.69
71476;BME280;59286;59.274;17.974;2022-12-07T05:03:21;100394.59;;;-4.62;88.66
71476;BME280;59286;59.274;17.974;2022-12-07T05:05:46;100421.09;;;-4.44;88.81
71476;BME280;59286;59.274;17.974;2022-12-07T05:08:11;100394.78;;;-4.57;88.79
71476;BME280;59286;59.274;17.974;2022-12-07T05:10:36;100389.66;;;-4.51;88.26
71476;BME280;59286;59.274;17.974;2022-12-07T05:13:02;100409.84;;;-4.36;88.46
71476;BME280;59286;59.274;17.974;2022-12-07T05:15:27;100392.75;;;-4.36;87.56
71476;BME280;59286;59.274;17.974;2022-12-07T05:17:52;100410.22;;;-4.26;88.05
71476;BME280;59286;59.274;17.974;2022-12-07T05:20:18;100375.69;;;-4.48;88.02
71476;BME280;59286;59.274;17.974;2022-12-07T05:22:43;100407.06;;;-4.22;87.49
71476;BME280;59286;59.274;17.974;2022-12-07T05:25:08;100384.88;;;-4.34;87.79
71476;BME280;59286;59.274;17.974;2022-12-07T05:27:34;100389.41;;;-4.36;87.79
71476;BME280;59286;59.274;17.974;2022-12-07T05:29:59;100399.63;;;-4.30;87.25
71476;BME280;59286;59.274;17.974;2022-12-07T05:32:24;100385.50;;;-4.39;87.71
71476;BME280;59286;59.274;17.974;2022-12-07T05:34:50;100366.25;;;-4.48;87.77
71476;BME280;59286;59.274;17.974;2022-12-07T05:37:15;100381.34;;;-4.40;88.04
71476;BME280;59286;59.274;17.974;2022-12-07T05:39:40;100380.97;;;-4.43;88.34
71476;BME280;59286;59.274;17.974;2022-12-07T05:42:09;100395.09;;;-4.28;88.43
71476;BME280;59286;59.274;17.974;2022-12-07T05:44:43;100391.53;;;-4.27;88.66
71476;BME280;59286;59.274;17.974;2022-12-07T05:47:10;100381.53;;;-4.35;88.12
71476;BME280;59286;59.274;17.974;2022-12-07T05:49:35;100374.25;;;-4.31;88.20
71476;BME280;59286;59.274;17.974;2022-12-07T05:52:01;100387.00;;;-4.25;87.98
71476;BME280;59286;59.274;17.974;2022-12-07T05:54:26;100365.25;;;-4.40;88.14
71476;BME280;59286;59.274;17.974;2022-12-07T05:56:52;100362.84;;;-4.35;87.80
71476;BME280;59286;59.274;17.974;2022-12-07T05:59:17;100400.75;;;-4.13;88.05
71476;BME280;59286;59.274;17.974;2022-12-07T06:02:00;100396.22;;;-4.11;87.91
71476;BME280;59286;59.274;17.974;2022-12-07T06:04:28;100385.78;;;-4.16;88.22
71476;BME280;59286;59.274;17.974;2022-12-07T06:06:54;100391.09;;;-4.11;87.65
71476;BME280;59286;59.274;17.974;2022-12-07T06:09:21;100356.56;;;-4.39;87.80
71476;BME280;59286;59.274;17.974;2022-12-07T06:11:47;100404.84;;;-4.12;87.88
71476;BME280;59286;59.274;17.974;2022-12-07T06:14:31;100399.78;;;-4.18;87.99
71476;BME280;59286;59.274;17.974;2022-12-07T06:16:56;100382.13;;;-4.33;87.96
71476;BME280;59286;59.274;17.974;2022-12-07T06:19:22;100405.13;;;-4.26;88.17
71476;BME280;59286;59.274;17.974;2022-12-07T06:21:47;100371.53;;;-4.49;88.28
71476;BME280;59286;59.274;17.974;2022-12-07T06:24:13;100410.66;;;-4.29;88.28
71476;BME280;59286;59.274;17.974;2022-12-07T06:26:39;100406.13;;;-4.34;88.29
71476;BME280;59286;59.274;17.974;2022-12-07T06:29:04;100364.69;;;-4.55;87.98
71476;BME280;59286;59.274;17.974;2022-12-07T06:31:30;100405.16;;;-4.33;88.15
71476;BME280;59286;59.274;17.974;2022-12-07T06:34:04;100404.53;;;-4.28;87.25
71476;BME280;59286;59.274;17.974;2022-12-07T06:36:30;100405.16;;;-4.33;87.30
71476;BME280;59286;59.274;17.974;2022-12-07T06:38:56;100378.66;;;-4.58;87.37
71476;BME280;59286;59.274;17.974;2022-12-07T06:41:22;100401.03;;;-4.47;87.54
71476;BME280;59286;59.274;17.974;2022-12-07T06:43:47;100396.34;;;-4.50;87.48
71476;BME280;59286;59.274;17.974;2022-12-07T06:46:13;100376.91;;;-4.64;87.86
71476;BME280;59286;59.274;17.974;2022-12-07T06:48:39;100393.59;;;-4.55;87.47
71476;BME280;59286;59.274;17.974;2022-12-07T06:51:04;100376.31;;;-4.66;87.66
71476;BME280;59286;59.274;17.974;2022-12-07T06:53:30;100382.22;;;-4.65;87.92
71476;BME280;59286;59.274;17.974;2022-12-07T06:55:55;100379.09;;;-4.74;88.34
71476;BME280;59286;59.274;17.974;2022-12-07T06:58:22;100401.88;;;-4.66;88.14
71476;BME280;59286;59.274;17.974;2022-12-07T07:00:48;100410.50;;;-4.54;88.14
71476;BME280;59286;59.274;17.974;2022-12-07T07:03:14;100421.72;;;-4.55;88.30
71476;BME280;59286;59.274;17.974;2022-12-07T07:05:40;100416.63;;;-4.61;88.87
71476;BME280;59286;59.274;17.974;2022-12-07T07:08:05;100405.00;;;-4.64;88.13
71476;BME280;59286;59.274;17.974;2022-12-07T07:10:30;100391.28;;;-4.76;88.04
71476;BME280;59286;59.274;17.974;2022-12-07T07:12:56;100409.38;;;-4.64;87.81
71476;BME280;59286;59.274;17.974;2022-12-07T07:15:21;100427.81;;;-4.56;88.17
71476;BME280;59286;59.274;17.974;2022-12-07T07:17:47;100436.06;;;-4.54;88.61
71476;BME280;59286;59.274;17.974;2022-12-07T07:20:12;100434.53;;;-4.61;87.09
71476;BME280;59286;59.274;17.974;2022-12-07T07:22:37;100398.75;;;-4.81;87.41
71476;BME280;59286;59.274;17.974;2022-12-07T07:25:03;100437.88;;;-4.67;88.17
71476;BME280;59286;59.274;17.974;2022-12-07T07:27:28;100409.75;;;-4.80;87.45
71476;BME280;59286;59.274;17.974;2022-12-07T07:29:54;100414.28;;;-4.82;87.62
71476;BME280;59286;59.274;17.974;2022-12-07T07:32:19;100400.75;;;-4.96;88.14
71476;BME280;59286;59.274;17.974;2022-12-07T07:34:46;100445.16;;;-4.71;88.15
71476;BME280;59286;59.274;17.974;2022-12-07T07:37:12;100422.94;;;-4.77;88.25
71476;BME280;59286;59.274;17.974;2022-12-07T07:39:37;100420.97;;;-4.75;87.98
71476;BME280;59286;59.274;17.974;2022-12-07T07:42:03;100423.53;;;-4.75;88.07
71476;BME280;59286;59.274;17.974;2022-12-07T07:44:29;100389.53;;;-4.88;87.96
71476;BME280;59286;59.274;17.974;2022-12-07T07:46:54;100392.06;;;-4.88;87.96
71476;BME280;59286;59.274;17.974;2022-12-07T07:49:19;100399.38;;;-4.85;88.08
71476;BME280;59286;59.274;17.974;2022-12-07T07:51:45;100419.59;;;-4.71;87.86
71476;BME280;59286;59.274;17.974;2022-12-07T07:54:10;100382.25;;;-4.92;87.94
71476;BME280;59286;59.274;17.974;2022-12-07T07:56:36;100414.47;;;-4.71;87.86
71476;BME280;59286;59.274;17.974;2022-12-07T07:59:01;100425.88;;;-4.67;87.55
71476;BME280;59286;59.274;17.974;2022-12-07T08:01:26;100394.06;;;-4.90;87.58
71476;BME280;59286;59.274;17.974;2022-12-07T08:03:52;100398.75;;;-4.81;87.55
71476;BME280;59286;59.274;17.974;2022-12-07T08:06:17;100428.22;;;-4.65;87.60
71476;BME280;59286;59.274;17.974;2022-12-07T08:08:42;100424.69;;;-4.64;87.67
71476;BME280;59286;59.274;17.974;2022-12-07T08:11:09;100418.00;;;-4.65;87.93
71476;BME280;59286;59.274;17.974;2022-12-07T08:13:35;100428.03;;;-4.64;87.98
71476;BME280;59286;59.274;17.974;2022-12-07T08:16:08;100420.34;;;-4.64;88.04
71476;BME280;59286;59.274;17.974;2022-12-07T08:18:39;100389.13;;;-4.85;87.67
71476;BME280;59286;59.274;17.974;2022-12-07T08:21:06;100411.72;;;-4.63;87.80
71476;BME280;59286;59.274;17.974;2022-12-07T08:23:32;100393.63;;;-4.74;88.05
71476;BME280;59286;59.274;17.974;2022-12-07T08:26:05;100415.25;;;-4.57;87.56
71476;BME280;59286;59.274;17.974;2022-12-07T08:28:31;100397.56;;;-4.72;87.49
71476;BME280;59286;59.274;17.974;2022-12-07T08:31:06;100387.97;;;-4.83;88.52
71476;BME280;59286;59.274;17.974;2022-12-07T08:33:32;100409.53;;;-4.59;88.08
71476;BME280;59286;59.274;17.974;2022-12-07T08:36:06;100386.53;;;-4.66;87.98
71476;BME280;59286;59.274;17.974;2022-12-07T08:38:34;100377.31;;;-4.73;87.67
71476;BME280;59286;59.274;17.974;2022-12-07T08:40:59;100383.81;;;-4.64;87.38
71476;BME280;59286;59.274;17.974;2022-12-07T08:43:25;100361.59;;;-4.70;87.33
71476;BME280;59286;59.274;17.974;2022-12-07T08:48:44;100393.38;;;-4.47;87.18
71476;BME280;59286;59.274;17.974;2022-12-07T08:51:11;100396.09;;;-4.42;87.16
71476;BME280;59286;59.274;17.974;2022-12-07T08:53:38;100401.03;;;-4.40;87.33
71476;BME280;59286;59.274;17.974;2022-12-07T08:56:04;100390.06;;;-4.54;87.04
71476;BME280;59286;59.274;17.974;2022-12-07T08:58:31;100363.34;;;-4.64;87.29
71476;BME280;59286;59.274;17.974;2022-12-07T09:00:57;100375.50;;;-4.53;86.77
71476;BME280;59286;59.274;17.974;2022-12-07T09:03:22;100390.41;;;-4.37;86.74
71476;BME280;59286;59.274;17.974;2022-12-07T09:05:48;100395.28;;;-4.29;86.76
71476;BME280;59286;59.274;17.974;2022-12-07T09:08:13;100366.25;;;-4.48;86.92
71476;BME280;59286;59.274;17.974;2022-12-07T09:10:39;100375.06;;;-4.44;87.57
71476;BME280;59286;59.274;17.974;2022-12-07T09:13:04;100357.41;;;-4.52;87.49
71476;BME280;59286;59.274;17.974;2022-12-07T09:15:30;100361.72;;;-4.46;87.46
71476;BME280;59286;59.274;17.974;2022-12-07T09:17:56;100360.91;;;-4.46;87.54
71476;BME280;59286;59.274;17.974;2022-12-07T09:20:21;100356.78;;;-4.47;87.54
71476;BME280;59286;59.274;17.974;2022-12-07T09:22:47;100350.09;;;-4.48;87.34
71476;BME280;59286;59.274;17.974;2022-12-07T09:25:12;100392.69;;;-4.23;87.67
71476;BME280;59286;59.274;17.974;2022-12-07T09:27:38;100361.88;;;-4.41;87.34
71476;BME280;59286;59.274;17.974;2022-12-07T09:30:05;100388.75;;;-4.19;87.17
71476;BME280;59286;59.274;17.974;2022-12-07T09:32:30;100389.75;;;-4.20;86.71
71476;BME280;59286;59.274;17.974;2022-12-07T09:34:56;100370.31;;;-4.34;86.79
71476;BME280;59286;59.274;17.974;2022-12-07T09:37:21;100387.97;;;-4.19;86.65
71476;BME280;59286;59.274;17.974;2022-12-07T09:39:47;100380.13;;;-4.24;86.60
71476;BME280;59286;59.274;17.974;2022-12-07T09:44:50;100366.00;;;-4.33;86.85
71476;BME280;59286;59.274;17.974;2022-12-07T09:47:15;100369.94;;;-4.37;86.94
71476;BME280;59286;59.274;17.974;2022-12-07T09:49:40;100357.34;;;-4.39;86.93
71476;BME280;59286;59.274;17.974;2022-12-07T09:54:37;100386.78;;;-4.23;87.05
71476;BME280;59286;59.274;17.974;2022-12-07T09:57:07;100376.59;;;-4.30;86.88
71476;BME280;59286;59.274;17.974;2022-12-07T09:59:33;100366.16;;;-4.28;87.17
71476;BME280;59286;59.274;17.974;2022-12-07T10:02:22;100391.09;;;-4.11;86.73
71476;BME280;59286;59.274;17.974;2022-12-07T10:04:48;100364.56;;;-4.23;86.94
71476;BME280;59286;59.274;17.974;2022-12-07T10:07:14;100372.41;;;-4.18;86.75
71476;BME280;59286;59.274;17.974;2022-12-07T10:09:39;100386.31;;;-4.01;86.85
71476;BME280;59286;59.274;17.974;2022-12-07T10:12:06;100388.84;;;-3.94;86.81
71476;BME280;59286;59.274;17.974;2022-12-07T10:14:37;100372.19;;;-4.10;86.85
71476;BME280;59286;59.274;17.974;2022-12-07T10:17:36;100366.03;;;-3.96;86.84
71476;BME280;59286;59.274;17.974;2022-12-07T10:20:20;100380.94;;;-3.86;86.98
71476;BME280;59286;59.274;17.974;2022-12-07T10:23:16;100373.19;;;-3.79;87.17
71476;BME280;59286;59.274;17.974;2022-12-07T10:25:41;100351.41;;;-3.88;86.60
71476;BME280;59286;59.274;17.974;2022-12-07T10:31:31;100365.44;;;-3.66;86.45
71476;BME280;59286;59.274;17.974;2022-12-07T10:41:28;100338.59;;;-3.57;85.97
71476;BME280;59286;59.274;17.974;2022-12-07T10:43:56;100334.84;;;-3.55;86.06
71476;BME280;59286;59.274;17.974;2022-12-07T10:46:37;100324.75;;;-3.50;86.09
71476;BME280;59286;59.274;17.974;2022-12-07T10:52:05;100338.22;;;-3.36;85.23
71476;BME280;59286;59.274;17.974;2022-12-07T11:03:45;100286.22;;;-3.61;85.59
71476;BME280;59286;59.274;17.974;2022-12-07T11:06:30;100296.06;;;-3.58;85.27
71476;BME280;59286;59.274;17.974;2022-12-07T11:12:04;100305.91;;;-3.37;84.89
71476;BME280;59286;59.274;17.974;2022-12-07T11:14:45;100305.91;;;-3.37;85.12
71476;BME280;59286;59.274;17.974;2022-12-07T11:17:18;100272.16;;;-3.52;85.13
71476;BME280;59286;59.274;17.974;2022-12-07T11:20:16;100297.66;;;-3.39;84.83
71476;BME280;59286;59.274;17.974;2022-12-07T11:22:49;100293.31;;;-3.39;84.90
71476;BME280;59286;59.274;17.974;2022-12-07T11:25:32;100294.25;;;-3.33;84.62
71476;BME280;59286;59.274;17.974;2022-12-07T11:33:46;100267.13;;;-3.41;84.55
71476;BME280;59286;59.274;17.974;2022-12-07T11:36:31;100273.63;;;-3.38;85.00
71476;BME280;59286;59.274;17.974;2022-12-07T11:41:42;100256.84;;;-3.59;84.73
71476;BME280;59286;59.274;17.974;2022-12-07T11:44:30;100271.88;;;-3.44;84.54
71476;BME280;59286;59.274;17.974;2022-12-07T11:55:16;100265.72;;;-3.37;84.32
71476;BME280;59286;59.274;17.974;2022-12-07T11:57:46;100246.53;;;-3.52;84.55
71476;BME280;59286;59.274;17.974;2022-12-07T12:00:16;100246.13;;;-3.49;84.20
71476;BME280;59286;59.274;17.974;2022-12-07T12:05:47;100232.75;;;-3.51;84.68
71476;BME280;59286;59.274;17.974;2022-12-07T12:08:27;100230.75;;;-3.49;84.44
71476;BME280;59286;59.274;17.974;2022-12-07T12:14:30;100228.69;;;-3.41;84.02
71476;BME280;59286;59.274;17.974;2022-12-07T12:22:50;100230.91;;;-3.26;83.68
71476;BME280;59286;59.274;17.974;2022-12-07T12:25:29;100217.03;;;-3.37;83.54
71476;BME280;59286;59.274;17.974;2022-12-07T12:27:58;100233.28;;;-3.25;83.52
71476;BME280;59286;59.274;17.974;2022-12-07T12:32:49;100219.16;;;-3.34;83.56
71476;BME280;59286;59.274;17.974;2022-12-07T12:35:31;100222.69;;;-3.28;83.65
71476;BME280;59286;59.274;17.974;2022-12-07T12:40:58;100227.28;;;-3.19;83.87
71476;BME280;59286;59.274;17.974;2022-12-07T12:43:49;100230.41;;;-3.17;83.38
71476;BME280;59286;59.274;17.974;2022-12-07T12:48:56;100216.63;;;-3.16;83.89
71476;BME280;59286;59.274;17.974;2022-12-07T12:51:41;100220.16;;;-3.17;83.52
71476;BME280;59286;59.274;17.974;2022-12-07T12:54:15;100220.59;;;-3.20;83.73
71476;BME280;59286;59.274;17.974;2022-12-07T13:07:49;100222.03;;;-3.24;83.84
71476;BME280;59286;59.274;17.974;2022-12-07T13:26:35;100231.00;;;-3.33;83.50
71476;BME280;59286;59.274;17.974;2022-12-07T13:29:20;100193.19;;;-3.55;83.65
71476;BME280;59286;59.274;17.974;2022-12-07T13:34:36;100211.06;;;-3.49;84.22
71476;BME280;59286;59.274;17.974;2022-12-07T13:37:10;100197.88;;;-3.52;83.80
71476;BME280;59286;59.274;17.974;2022-12-07T13:39:45;100220.03;;;-3.40;83.37
71476;BME280;59286;59.274;17.974;2022-12-07T13:42:46;100214.97;;;-3.46;83.81
71476;BME280;59286;59.274;17.974;2022-12-07T13:45:23;100224.81;;;-3.43;83.56
71476;BME280;59286;59.274;17.974;2022-12-07T13:48:16;100223.78;;;-3.42;84.07
71476;BME280;59286;59.274;17.974;2022-12-07T13:50:52;100226.34;;;-3.42;83.84
71476;BME280;59286;59.274;17.974;2022-12-07T13:53:18;100219.69;;;-3.43;83.77
71476;BME280;59286;59.274;17.974;2022-12-07T13:55:47;100202.84;;;-3.57;83.62
71476;BME280;59286;59.274;17.974;2022-12-07T13:58:13;100202.63;;;-3.56;83.61
71476;BME280;59286;59.274;17.974;2022-12-07T14:00:39;100159.72;;;-3.78;84.05
71476;BME280;59286;59.274;17.974;2022-12-07T14:05:37;100212.97;;;-3.44;83.80
71476;BME280;59286;59.274;17.974;2022-12-07T14:08:24;100191.47;;;-3.61;83.62
71476;BME280;59286;59.274;17.974;2022-12-07T14:13:32;100207.97;;;-3.57;83.20
71476;BME280;59286;59.274;17.974;2022-12-07T14:16:02;100212.69;;;-3.54;83.77
71476;BME280;59286;59.274;17.974;2022-12-07T14:18:30;100199.81;;;-3.66;83.47
71476;BME280;59286;59.274;17.974;2022-12-07T14:23:40;100207.00;;;-3.56;83.22
71476;BME280;59286;59.274;17.974;2022-12-07T14:26:19;100200.16;;;-3.62;83.35
71476;BME280;59286;59.274;17.974;2022-12-07T14:28:45;100203.88;;;-3.58;83.45
71476;BME280;59286;59.274;17.974;2022-12-07T14:31:11;100201.72;;;-3.61;83.94
71476;BME280;59286;59.274;17.974;2022-12-07T14:33:38;100188.56;;;-3.65;83.83
71476;BME280;59286;59.274;17.974;2022-12-07T14:36:03;100175.81;;;-3.71;84.00
71476;BME280;59286;59.274;17.974;2022-12-07T14:38:29;100158.38;;;-3.81;83.84
71476;BME280;59286;59.274;17.974;2022-12-07T14:40:54;100164.66;;;-3.77;83.97
71476;BME280;59286;59.274;17.974;2022-12-07T14:43:40;100176.22;;;-3.74;84.23
71476;BME280;59286;59.274;17.974;2022-12-07T14:46:06;100194.16;;;-3.74;84.56
71476;BME280;59286;59.274;17.974;2022-12-07T14:48:35;100163.03;;;-3.96;84.51
71476;BME280;59286;59.274;17.974;2022-12-07T14:51:00;100170.06;;;-3.92;84.12
71476;BME280;59286;59.274;17.974;2022-12-07T14:53:30;100163.63;;;-3.94;84.54
71476;BME280;59286;59.274;17.974;2022-12-07T14:55:58;100134.88;;;-4.14;84.86
71476;BME280;59286;59.274;17.974;2022-12-07T14:58:24;100143.06;;;-4.06;84.89
71476;BME280;59286;59.274;17.974;2022-12-07T15:00:49;100121.97;;;-4.26;85.12
71476;BME280;59286;59.274;17.974;2022-12-07T15:03:17;100152.03;;;-3.97;84.62
71476;BME280;59286;59.274;17.974;2022-12-07T15:05:42;100166.75;;;-3.92;85.05
71476;BME280;59286;59.274;17.974;2022-12-07T15:08:12;100168.97;;;-3.96;84.94
71476;BME280;59286;59.274;17.974;2022-12-07T15:10:38;100134.88;;;-4.14;84.90
71476;BME280;59286;59.274;17.974;2022-12-07T15:13:05;100122.75;;;-4.25;85.21
71476;BME280;59286;59.274;17.974;2022-12-07T15:15:50;100160.28;;;-3.95;85.01
71476;BME280;59286;59.274;17.974;2022-12-07T15:18:17;100139.19;;;-4.15;85.44
71476;BME280;59286;59.274;17.974;2022-12-07T15:20:42;100149.56;;;-4.10;85.29